createdAt,value
2017-11-23T00:01:12.568Z,10.50
2017-11-23T00:03:40.056Z,10.40
2017-11-23T00:06:07.565Z,10.40
2017-11-23T00:08:35.052Z,10.50
2017-11-23T00:11:02.532Z,10.50
2017-11-23T00:13:30.789Z,10.50
2017-11-23T00:15:58.758Z,10.50
2017-11-23T00:18:27.021Z,10.60
2017-11-23T00:20:56.025Z,10.70
2017-11-23T00:23:23.504Z,10.60
2017-11-23T00:25:51.004Z,10.70
2017-11-23T00:28:18.505Z,10.70
2017-11-23T00:30:46.748Z,10.70
2017-11-23T00:33:14.233Z,10.60
2017-11-23T00:35:42.502Z,10.70
2017-11-23T00:38:10.058Z,10.70
2017-11-23T00:40:37.564Z,10.70
2017-11-23T00:43:05.088Z,10.70
2017-11-23T00:45:33.328Z,10.70
2017-11-23T00:48:00.959Z,10.70
2017-11-23T00:50:28.473Z,10.70
2017-11-23T00:52:56.755Z,10.80
2017-11-23T00:55:25.083Z,10.80
2017-11-23T00:57:52.577Z,10.80
2017-11-23T01:00:20.052Z,10.80
2017-11-23T01:02:47.552Z,10.80
2017-11-23T01:05:15.016Z,10.80
2017-11-23T01:07:42.508Z,10.70
2017-11-23T01:10:10.018Z,10.70
2017-11-23T01:12:37.632Z,10.80
2017-11-23T01:15:05.954Z,10.80
2017-11-23T01:17:33.458Z,10.80
2017-11-23T01:20:00.966Z,10.90
2017-11-23T01:22:34.013Z,10.90
2017-11-23T01:25:01.558Z,10.90
2017-11-23T01:27:29.034Z,10.90
2017-11-23T01:29:56.571Z,10.90
2017-11-23T01:32:24.037Z,11.00
2017-11-23T01:34:51.491Z,11.00
2017-11-23T01:37:18.970Z,11.00
2017-11-23T01:39:46.446Z,11.10
2017-11-23T01:42:13.918Z,11.10
2017-11-23T01:44:42.459Z,11.10
2017-11-23T01:47:10.698Z,11.20
2017-11-23T01:49:38.580Z,11.20
2017-11-23T01:52:06.051Z,11.20
2017-11-23T01:54:34.280Z,11.20
2017-11-23T01:57:01.768Z,11.30
2017-11-23T01:59:29.249Z,11.30
2017-11-23T02:01:57.489Z,11.30
2017-11-23T02:04:24.956Z,11.30
2017-11-23T02:06:52.418Z,11.20
2017-11-23T02:09:19.905Z,11.20
2017-11-23T02:11:48.180Z,11.00
2017-11-23T02:14:16.420Z,11.00
2017-11-23T02:16:44.108Z,11.00
2017-11-23T02:19:12.341Z,11.00
2017-11-23T02:21:39.820Z,11.00
2017-11-23T02:24:07.280Z,11.00
2017-11-23T02:26:35.531Z,11.00
2017-11-23T02:29:03.007Z,11.00
2017-11-23T02:31:30.486Z,11.00
2017-11-23T02:33:57.976Z,11.00
2017-11-23T02:36:25.464Z,11.00
2017-11-23T02:38:53.050Z,10.90
2017-11-23T02:41:21.282Z,10.90
2017-11-23T02:43:48.787Z,11.00
2017-11-23T02:46:17.117Z,11.00
2017-11-23T02:48:44.585Z,11.00
2017-11-23T02:51:12.086Z,11.00
2017-11-23T02:53:40.352Z,11.00
2017-11-23T02:56:08.604Z,11.00
2017-11-23T02:58:36.080Z,11.00
2017-11-23T03:01:04.356Z,11.10
2017-11-23T03:03:31.818Z,11.10
2017-11-23T03:06:00.089Z,11.10
2017-11-23T03:08:27.587Z,11.10
2017-11-23T03:10:55.054Z,11.10
2017-11-23T03:13:22.529Z,11.10
2017-11-23T03:15:49.996Z,11.10
2017-11-23T03:18:17.462Z,11.20
2017-11-23T03:20:44.943Z,11.20
2017-11-23T03:23:13.820Z,11.10
2017-11-23T03:25:42.829Z,11.20
2017-11-23T03:28:11.079Z,11.20
2017-11-23T03:30:38.643Z,11.20
2017-11-23T03:33:06.110Z,11.20
2017-11-23T03:35:34.383Z,11.30
2017-11-23T03:38:02.661Z,11.30
2017-11-23T03:40:30.899Z,11.40
2017-11-23T03:42:58.430Z,11.40
2017-11-23T03:45:25.905Z,11.40
2017-11-23T03:47:53.360Z,11.40
2017-11-23T03:50:21.739Z,11.50
2017-11-23T03:52:50.260Z,11.50
2017-11-23T03:55:17.815Z,11.60
2017-11-23T03:57:45.303Z,11.60
2017-11-23T04:00:12.797Z,11.70
2017-11-23T04:02:41.802Z,11.70
2017-11-23T04:05:09.293Z,11.70
2017-11-23T04:07:37.533Z,11.70
2017-11-23T04:10:05.112Z,11.70
2017-11-23T04:12:32.589Z,11.80
2017-11-23T04:15:00.893Z,11.80
2017-11-23T04:17:28.357Z,11.80
2017-11-23T04:19:55.840Z,11.80
2017-11-23T04:22:23.339Z,11.80
2017-11-23T04:24:50.886Z,11.80
2017-11-23T04:27:19.151Z,11.80
2017-11-23T04:29:46.633Z,11.80
2017-11-23T04:32:14.183Z,11.80
2017-11-23T04:34:42.435Z,11.80
2017-11-23T04:37:10.867Z,11.80
2017-11-23T04:39:38.324Z,11.80
2017-11-23T04:42:05.820Z,11.90
2017-11-23T04:44:33.384Z,11.90
2017-11-23T04:47:00.872Z,11.90
2017-11-23T04:49:29.139Z,12.00
2017-11-23T04:51:56.617Z,12.00
2017-11-23T04:54:24.286Z,12.00
2017-11-23T04:56:52.652Z,12.00
2017-11-23T04:59:20.489Z,12.10
2017-11-23T05:01:48.760Z,12.30
2017-11-23T05:04:16.320Z,12.20
2017-11-23T05:06:43.792Z,12.30
2017-11-23T05:09:12.029Z,12.40
2017-11-23T05:11:39.564Z,12.40
2017-11-23T05:14:07.072Z,12.40
2017-11-23T05:16:34.550Z,12.40
2017-11-23T05:19:02.064Z,12.40
2017-11-23T05:21:30.180Z,12.40
2017-11-23T05:23:57.755Z,12.40
2017-11-23T05:26:25.572Z,12.30
2017-11-23T05:28:53.057Z,12.40
2017-11-23T05:31:21.333Z,12.30
2017-11-23T05:33:49.714Z,12.20
2017-11-23T05:36:17.972Z,12.20
2017-11-23T05:38:45.536Z,12.20
2017-11-23T05:41:13.796Z,12.20
2017-11-23T05:43:41.268Z,12.20
2017-11-23T05:46:09.547Z,12.30
2017-11-23T05:48:37.041Z,12.30
2017-11-23T05:51:04.516Z,12.30
2017-11-23T05:53:32.029Z,12.20
2017-11-23T05:56:00.289Z,12.20
2017-11-23T05:58:27.785Z,12.20
2017-11-23T06:00:55.248Z,12.20
2017-11-23T06:03:23.716Z,12.10
2017-11-23T06:05:51.217Z,12.10
2017-11-23T06:08:20.231Z,12.20
2017-11-23T06:10:47.685Z,12.20
2017-11-23T06:13:15.949Z,12.30
2017-11-23T06:15:43.486Z,12.20
2017-11-23T06:18:10.982Z,12.30
2017-11-23T06:20:39.231Z,12.40
2017-11-23T06:23:06.806Z,12.40
2017-11-23T06:25:34.289Z,12.40
2017-11-23T06:28:02.536Z,12.60
2017-11-23T06:30:30.007Z,12.60
2017-11-23T06:32:58.271Z,12.80
2017-11-23T06:35:25.849Z,12.70
2017-11-23T06:37:54.116Z,12.90
2017-11-23T06:40:22.375Z,12.90
2017-11-23T06:42:49.877Z,12.90
2017-11-23T06:45:17.377Z,13.00
2017-11-23T06:47:44.964Z,13.00
2017-11-23T06:50:13.242Z,13.10
2017-11-23T06:52:41.479Z,13.10
2017-11-23T06:55:08.970Z,13.10
2017-11-23T06:57:37.226Z,13.20
2017-11-23T07:00:04.711Z,13.20
2017-11-23T07:02:32.952Z,13.30
2017-11-23T07:05:00.466Z,13.20
2017-11-23T07:07:27.944Z,13.30
2017-11-23T07:09:55.450Z,13.30
2017-11-23T07:12:23.959Z,13.30
2017-11-23T07:14:51.438Z,13.30
2017-11-23T07:17:18.954Z,13.40
2017-11-23T07:19:47.195Z,13.50
2017-11-23T07:22:14.692Z,13.50
2017-11-23T07:24:42.947Z,13.50
2017-11-23T07:27:11.836Z,13.50
2017-11-23T07:29:39.408Z,13.50
2017-11-23T07:32:07.659Z,13.50
2017-11-23T07:34:35.135Z,13.40
2017-11-23T07:37:03.397Z,13.50
2017-11-23T07:39:30.857Z,13.50
2017-11-23T07:41:58.411Z,13.50
2017-11-23T07:44:25.912Z,13.50
2017-11-23T07:46:53.392Z,13.50
2017-11-23T07:49:20.881Z,13.60
2017-11-23T07:51:48.371Z,13.60
2017-11-23T07:54:16.648Z,13.60
2017-11-23T07:56:44.892Z,13.60
2017-11-23T07:59:12.369Z,13.60
2017-11-23T08:01:40.629Z,13.70
2017-11-23T08:04:08.104Z,13.60
2017-11-23T08:06:36.358Z,13.70
2017-11-23T08:09:03.830Z,13.70
2017-11-23T08:11:32.082Z,13.70
2017-11-23T08:13:59.574Z,13.70
2017-11-23T08:16:27.825Z,13.80
2017-11-23T08:18:55.296Z,13.80
2017-11-23T08:21:23.560Z,13.90
2017-11-23T08:23:51.808Z,14.00
2017-11-23T08:26:19.284Z,14.00
2017-11-23T08:28:46.795Z,14.10
2017-11-23T08:31:14.284Z,14.20
2017-11-23T08:33:41.741Z,14.30
2017-11-23T08:36:09.224Z,14.30
2017-11-23T08:38:36.778Z,14.30
2017-11-23T08:41:04.346Z,14.30
2017-11-23T08:43:32.605Z,14.20
2017-11-23T08:46:00.090Z,14.20
2017-11-23T08:48:28.341Z,14.10
2017-11-23T08:50:55.817Z,14.10
2017-11-23T08:53:24.082Z,13.90
2017-11-23T08:55:51.636Z,13.80
2017-11-23T08:58:19.204Z,13.80
2017-11-23T09:00:47.484Z,13.80
2017-11-23T09:03:15.728Z,13.70
2017-11-23T09:05:44.980Z,13.70
2017-11-23T09:08:12.447Z,13.80
2017-11-23T09:10:39.978Z,13.80
2017-11-23T09:13:09.235Z,13.70
2017-11-23T09:15:36.708Z,13.70
2017-11-23T09:18:04.185Z,13.70
2017-11-23T09:20:32.436Z,13.80
2017-11-23T09:22:59.917Z,13.80
2017-11-23T09:25:28.296Z,13.70
2017-11-23T09:27:55.806Z,13.70
2017-11-23T09:30:23.318Z,13.70
2017-11-23T09:32:51.689Z,13.70
2017-11-23T09:35:19.918Z,13.70
2017-11-23T09:37:47.385Z,13.70
2017-11-23T09:40:14.961Z,13.70
2017-11-23T09:42:42.525Z,13.70
2017-11-23T09:45:09.997Z,13.70
2017-11-23T09:47:38.252Z,13.60
2017-11-23T09:50:05.743Z,13.70
2017-11-23T09:52:34.001Z,13.60
2017-11-23T09:55:03.065Z,13.60
2017-11-23T09:57:30.550Z,13.50
2017-11-23T09:59:58.797Z,13.60
2017-11-23T10:02:26.272Z,13.60
2017-11-23T10:04:53.738Z,13.70
2017-11-23T10:07:22.775Z,13.80
2017-11-23T10:09:50.266Z,13.80
2017-11-23T10:12:17.760Z,13.80
2017-11-23T10:14:46.026Z,13.70
2017-11-23T10:17:13.497Z,13.70
2017-11-23T10:19:41.734Z,13.60
2017-11-23T10:22:09.300Z,13.50
2017-11-23T10:24:36.783Z,13.50
2017-11-23T10:27:04.269Z,13.40
2017-11-23T10:29:31.788Z,13.30
2017-11-23T10:32:00.020Z,13.20
2017-11-23T10:34:27.529Z,13.20
2017-11-23T10:36:55.776Z,13.10
2017-11-23T10:39:23.260Z,13.10
2017-11-23T10:41:51.500Z,13.00
2017-11-23T10:44:18.978Z,13.00
2017-11-23T10:46:47.245Z,12.90
2017-11-23T10:49:14.745Z,12.90
2017-11-23T10:51:42.837Z,12.90
2017-11-23T10:54:10.362Z,12.90
2017-11-23T10:56:38.592Z,12.90
2017-11-23T10:59:06.073Z,12.90
2017-11-23T11:01:34.345Z,12.90
2017-11-23T11:04:02.634Z,12.90
2017-11-23T11:06:30.897Z,12.90
2017-11-23T11:08:59.148Z,12.90
2017-11-23T11:11:26.625Z,12.90
2017-11-23T11:13:54.182Z,12.90
2017-11-23T11:16:22.409Z,12.90
2017-11-23T11:18:49.905Z,12.90
2017-11-23T11:21:17.372Z,12.90
2017-11-23T11:23:44.836Z,13.00
2017-11-23T11:26:13.573Z,13.00
2017-11-23T11:28:41.481Z,13.00
2017-11-23T11:31:08.940Z,13.00
2017-11-23T11:33:36.400Z,13.00
2017-11-23T11:36:03.882Z,13.10
2017-11-23T11:38:32.130Z,13.10
2017-11-23T11:40:59.604Z,13.10
2017-11-23T11:43:27.850Z,13.20
2017-11-23T11:45:55.316Z,13.20
2017-11-23T11:48:22.804Z,13.30
2017-11-23T11:50:50.330Z,13.40
2017-11-23T11:53:17.793Z,13.30
2017-11-23T11:55:45.263Z,13.30
2017-11-23T11:58:13.524Z,13.20
2017-11-23T12:00:41.016Z,13.20
2017-11-23T12:03:08.537Z,13.20
2017-11-23T12:05:36.016Z,13.20
2017-11-23T12:08:04.269Z,13.20
2017-11-23T12:10:32.532Z,13.20
2017-11-23T12:13:00.003Z,13.20
2017-11-23T12:15:36.797Z,13.30
2017-11-23T12:18:16.865Z,13.30
2017-11-23T12:20:56.297Z,13.20
2017-11-23T12:23:49.608Z,13.30
2017-11-23T12:26:17.088Z,13.20
2017-11-23T12:28:57.352Z,13.00
2017-11-23T12:31:24.829Z,13.00
2017-11-23T12:33:52.299Z,12.90
2017-11-23T12:36:19.759Z,12.80
2017-11-23T12:38:47.247Z,12.70
2017-11-23T12:41:14.725Z,12.60
2017-11-23T12:43:42.188Z,12.40
2017-11-23T12:46:09.752Z,12.30
2017-11-23T12:48:38.016Z,12.00
2017-11-23T12:51:05.472Z,12.00
2017-11-23T12:53:32.937Z,11.90
2017-11-23T12:56:00.397Z,11.90
2017-11-23T12:58:28.628Z,11.80
2017-11-23T13:00:56.106Z,11.70
2017-11-23T13:03:23.580Z,11.70
2017-11-23T13:05:51.865Z,11.70
2017-11-23T13:08:20.108Z,11.90
2017-11-23T13:10:47.602Z,11.90
2017-11-23T13:13:15.838Z,11.90
2017-11-23T13:15:43.312Z,11.90
2017-11-23T13:18:10.774Z,11.80
2017-11-23T13:20:38.333Z,11.80
2017-11-23T13:23:05.905Z,11.90
2017-11-23T13:25:33.444Z,11.90
2017-11-23T13:28:00.936Z,11.80
2017-11-23T13:30:28.430Z,11.80
2017-11-23T13:32:55.902Z,11.80
2017-11-23T13:35:23.486Z,11.90
2017-11-23T13:37:51.745Z,12.00
2017-11-23T13:40:19.215Z,12.00
2017-11-23T13:42:46.687Z,11.90
2017-11-23T13:45:14.993Z,11.90
2017-11-23T13:47:42.552Z,11.90
2017-11-23T13:50:10.016Z,12.00
2017-11-23T13:52:37.496Z,12.00
2017-11-23T13:55:04.989Z,12.00
2017-11-23T13:57:33.224Z,11.90
2017-11-23T14:00:00.720Z,11.90
2017-11-23T14:02:28.198Z,11.90
2017-11-23T14:04:55.728Z,11.90
2017-11-23T14:07:23.197Z,11.90
2017-11-23T14:09:51.431Z,11.80
2017-11-23T14:12:18.900Z,11.80
2017-11-23T14:14:47.136Z,11.70
2017-11-23T14:17:14.649Z,11.70
2017-11-23T14:19:42.906Z,11.60
2017-11-23T14:22:10.973Z,11.60
2017-11-23T14:24:38.541Z,11.60
2017-11-23T14:27:06.013Z,11.50
2017-11-23T14:29:34.248Z,11.30
2017-11-23T14:32:01.729Z,11.30
2017-11-23T14:34:29.193Z,11.30
2017-11-23T14:36:56.723Z,11.20
2017-11-23T14:39:24.199Z,11.10
2017-11-23T14:41:51.664Z,11.00
2017-11-23T14:44:19.134Z,11.00
2017-11-23T14:46:47.433Z,10.80
2017-11-23T14:49:14.900Z,10.80
2017-11-23T14:51:42.355Z,10.80
2017-11-23T14:54:09.820Z,10.70
2017-11-23T14:56:37.286Z,10.60
2017-11-23T14:59:04.757Z,10.60
2017-11-23T15:01:32.237Z,10.50
2017-11-23T15:03:59.708Z,10.50
2017-11-23T15:06:27.958Z,10.40
2017-11-23T15:08:55.448Z,10.30
2017-11-23T15:11:23.686Z,10.30
2017-11-23T15:13:51.257Z,10.30
2017-11-23T15:16:18.757Z,10.20
2017-11-23T15:18:46.214Z,10.10
2017-11-23T15:21:13.685Z,10.10
2017-11-23T15:23:41.151Z,10.10
2017-11-23T15:26:08.656Z,10.00
2017-11-23T15:28:36.941Z,9.90
2017-11-23T15:31:05.188Z,9.80
2017-11-23T15:33:32.648Z,9.80
2017-11-23T15:36:00.112Z,9.80
2017-11-23T15:38:28.400Z,9.70
2017-11-23T15:40:56.636Z,9.60
2017-11-23T15:43:24.113Z,9.60
2017-11-23T15:45:51.568Z,9.50
2017-11-23T15:48:19.145Z,9.50
2017-11-23T15:50:47.405Z,9.40
2017-11-23T15:53:14.884Z,9.40
2017-11-23T15:55:43.130Z,9.40
2017-11-23T15:58:10.604Z,9.40
2017-11-23T16:00:38.072Z,9.30
2017-11-23T16:03:06.341Z,9.30
2017-11-23T16:05:34.569Z,9.30
2017-11-23T16:08:02.032Z,9.30
2017-11-23T16:10:29.505Z,9.30
2017-11-23T16:12:56.973Z,9.30
2017-11-23T16:15:24.434Z,9.20
2017-11-23T16:17:51.928Z,9.20
2017-11-23T16:20:19.404Z,9.20
2017-11-23T16:22:46.872Z,9.20
2017-11-23T16:25:14.363Z,9.20
2017-11-23T16:27:41.836Z,9.20
2017-11-23T16:30:10.079Z,9.30
2017-11-23T16:32:38.328Z,9.30
2017-11-23T16:35:05.804Z,9.30
2017-11-23T16:37:37.928Z,9.20
2017-11-23T16:40:08.805Z,9.20
2017-11-23T16:42:42.047Z,9.20
2017-11-23T16:45:15.261Z,9.20
2017-11-23T16:47:46.313Z,9.20
2017-11-23T16:50:32.690Z,9.20
2017-11-23T16:53:15.852Z,9.30
2017-11-23T16:55:48.920Z,9.20
2017-11-23T16:58:22.164Z,9.20
2017-11-23T17:00:56.648Z,9.30
2017-11-23T17:03:29.949Z,9.20
2017-11-23T17:06:03.257Z,9.20
2017-11-23T17:08:30.757Z,9.30
2017-11-23T17:11:04.809Z,9.30
2017-11-23T17:13:49.158Z,9.40
2017-11-23T17:16:22.393Z,9.30
2017-11-23T17:19:06.229Z,9.30
2017-11-23T17:21:34.497Z,9.30
2017-11-23T17:24:02.377Z,9.30
2017-11-23T17:26:30.643Z,9.30
2017-11-23T17:28:58.918Z,9.40
2017-11-23T17:31:26.482Z,9.40
2017-11-23T17:33:54.731Z,9.30
2017-11-23T17:36:22.314Z,9.30
2017-11-23T17:38:50.596Z,9.30
2017-11-23T17:41:18.869Z,9.30
2017-11-23T17:43:47.978Z,9.30
2017-11-23T17:46:16.230Z,9.30
2017-11-23T17:48:43.713Z,9.30
2017-11-23T17:51:11.201Z,9.30
2017-11-23T17:53:38.701Z,9.20
2017-11-23T17:56:06.163Z,9.30
2017-11-23T17:58:34.408Z,9.30
2017-11-23T18:01:02.677Z,9.30
2017-11-23T18:03:30.149Z,9.30
2017-11-23T18:05:57.647Z,9.30
2017-11-23T18:08:25.135Z,9.20
2017-11-23T18:10:52.614Z,9.20
2017-11-23T18:13:20.120Z,9.20
2017-11-23T18:15:47.605Z,9.30
2017-11-23T18:18:15.093Z,9.30
2017-11-23T18:20:42.564Z,9.20
2017-11-23T18:23:10.032Z,9.20
2017-11-23T18:25:37.867Z,9.20
2017-11-23T18:28:05.357Z,9.20
2017-11-23T18:30:33.620Z,9.10
2017-11-23T18:33:01.102Z,9.10
2017-11-23T18:35:28.636Z,9.10
2017-11-23T18:37:56.099Z,9.10
2017-11-23T18:40:24.468Z,9.10
2017-11-23T18:42:52.026Z,9.10
2017-11-23T18:45:19.492Z,9.20
2017-11-23T18:47:47.749Z,9.20
2017-11-23T18:50:15.298Z,9.20
2017-11-23T18:52:42.747Z,9.20
2017-11-23T18:55:10.220Z,9.10
2017-11-23T18:57:38.524Z,9.10
2017-11-23T19:00:06.826Z,9.10
2017-11-23T19:02:34.348Z,9.10
2017-11-23T19:05:02.575Z,9.10
2017-11-23T19:07:30.075Z,9.00
2017-11-23T19:09:57.549Z,9.10
2017-11-23T19:12:25.781Z,9.10
2017-11-23T19:14:53.265Z,9.00
2017-11-23T19:17:22.371Z,9.10
2017-11-23T19:19:51.632Z,9.20
2017-11-23T19:22:19.126Z,9.20
2017-11-23T19:24:47.381Z,9.30
2017-11-23T19:27:15.205Z,9.30
2017-11-23T19:29:42.699Z,9.30
2017-11-23T19:32:10.965Z,9.40
2017-11-23T19:34:38.453Z,9.40
2017-11-23T19:37:06.720Z,9.40
2017-11-23T19:39:34.269Z,9.40
2017-11-23T19:42:01.838Z,9.40
2017-11-23T19:44:29.444Z,9.40
2017-11-23T19:46:56.944Z,9.40
2017-11-23T19:49:24.417Z,9.30
2017-11-23T19:51:53.005Z,9.30
2017-11-23T19:54:21.268Z,9.30
2017-11-23T19:56:48.737Z,9.20
2017-11-23T19:59:16.976Z,9.20
2017-11-23T20:01:44.454Z,9.20
2017-11-23T20:04:11.920Z,9.20
2017-11-23T20:06:40.185Z,9.30
2017-11-23T20:09:07.651Z,9.20
2017-11-23T20:11:35.901Z,9.20
2017-11-23T20:14:03.380Z,9.20
2017-11-23T20:16:30.863Z,9.30
2017-11-23T20:19:00.130Z,9.30
2017-11-23T20:21:27.616Z,9.30
2017-11-23T20:23:55.844Z,9.30
2017-11-23T20:26:23.321Z,9.30
2017-11-23T20:28:51.630Z,9.40
2017-11-23T20:31:19.869Z,9.30
2017-11-23T20:33:47.337Z,9.40
2017-11-23T20:36:15.568Z,9.40
2017-11-23T20:38:44.068Z,9.40
2017-11-23T20:41:12.021Z,9.40
2017-11-23T20:43:39.493Z,9.40
2017-11-23T20:46:06.965Z,9.40
2017-11-23T20:48:34.420Z,9.40
2017-11-23T20:51:01.996Z,9.40
2017-11-23T20:53:30.221Z,9.40
2017-11-23T20:55:57.687Z,9.40
2017-11-23T20:58:25.159Z,9.40
2017-11-23T21:00:52.652Z,9.40
2017-11-23T21:03:20.960Z,9.40
2017-11-23T21:05:48.421Z,9.40
2017-11-23T21:08:15.997Z,9.40
2017-11-23T21:10:43.623Z,9.40
2017-11-23T21:13:11.120Z,9.40
2017-11-23T21:15:38.608Z,9.40
2017-11-23T21:18:06.856Z,9.40
2017-11-23T21:20:34.377Z,9.40
2017-11-23T21:23:02.707Z,9.40
2017-11-23T21:25:30.977Z,9.50
2017-11-23T21:27:58.628Z,9.50
2017-11-23T21:30:26.801Z,9.50
2017-11-23T21:32:55.745Z,9.50
2017-11-23T21:35:23.965Z,9.50
2017-11-23T21:37:51.708Z,9.50
2017-11-23T21:40:19.190Z,9.50
2017-11-23T21:42:46.656Z,9.50
2017-11-23T21:45:15.010Z,9.50
2017-11-23T21:47:42.595Z,9.50
2017-11-23T21:50:10.065Z,9.50
2017-11-23T21:52:38.317Z,9.50
2017-11-23T21:55:06.488Z,9.50
2017-11-23T21:57:33.952Z,9.50
2017-11-23T22:00:02.245Z,9.40
2017-11-23T22:02:30.597Z,9.40
2017-11-23T22:04:58.068Z,9.50
2017-11-23T22:07:25.632Z,9.40
2017-11-23T22:09:53.971Z,9.40
2017-11-23T22:12:21.464Z,9.30
2017-11-23T22:14:49.721Z,9.20
2017-11-23T22:17:17.200Z,9.20
2017-11-23T22:19:45.428Z,9.20
2017-11-23T22:22:12.897Z,9.20
2017-11-23T22:24:40.378Z,9.10
2017-11-23T22:27:07.848Z,9.10
2017-11-23T22:29:36.114Z,9.10
2017-11-23T22:32:03.588Z,9.10
2017-11-23T22:34:31.969Z,9.10
2017-11-23T22:37:00.205Z,9.10
2017-11-23T22:39:27.697Z,9.10
2017-11-23T22:41:55.961Z,9.20
2017-11-23T22:44:23.428Z,9.10
2017-11-23T22:46:52.312Z,9.20
2017-11-23T22:49:21.293Z,9.20
2017-11-23T22:51:48.868Z,9.20
2017-11-23T22:54:17.113Z,9.20
2017-11-23T22:56:44.572Z,9.20
2017-11-23T22:59:12.558Z,9.20
2017-11-23T23:01:41.673Z,9.20
2017-11-23T23:04:10.237Z,9.20
2017-11-23T23:06:37.724Z,9.20
2017-11-23T23:09:05.216Z,9.20
2017-11-23T23:11:32.685Z,9.20
2017-11-23T23:14:00.157Z,9.30
2017-11-23T23:16:27.661Z,9.20
2017-11-23T23:18:55.149Z,9.20
2017-11-23T23:21:22.632Z,9.20
2017-11-23T23:23:50.189Z,9.20
2017-11-23T23:26:17.650Z,9.10
2017-11-23T23:28:45.201Z,9.10
2017-11-23T23:31:13.360Z,9.10
2017-11-23T23:33:41.837Z,9.20
2017-11-23T23:36:09.320Z,9.20
2017-11-23T23:38:36.821Z,9.10
2017-11-23T23:41:04.278Z,9.10
2017-11-23T23:43:31.744Z,9.10
2017-11-23T23:45:59.223Z,9.00
2017-11-23T23:48:26.705Z,9.00
2017-11-23T23:50:54.984Z,9.00
2017-11-23T23:53:24.288Z,9.10
2017-11-23T23:55:53.453Z,9.00
2017-11-23T23:58:21.744Z,9.00
